createdAt,value
2023-03-31T00:03:26.224Z,99.90
2023-03-31T00:08:35.981Z,99.90
2023-03-31T00:13:39.401Z,99.90
2023-03-31T00:18:47.861Z,99.90
2023-03-31T00:23:55.796Z,99.90
2023-03-31T00:28:59.195Z,99.90
2023-03-31T00:34:02.128Z,99.90
2023-03-31T00:39:09.617Z,99.90
2023-03-31T00:44:24.991Z,99.90
2023-03-31T00:49:34.826Z,99.90
2023-03-31T00:54:38.345Z,99.90
2023-03-31T00:59:59.231Z,99.90
2023-03-31T01:05:02.662Z,99.90
2023-03-31T01:10:06.854Z,99.90
2023-03-31T01:15:10.850Z,99.90
2023-03-31T01:20:34.595Z,99.90
2023-03-31T01:25:46.320Z,99.90
2023-03-31T01:31:13.331Z,99.90
2023-03-31T01:36:39.666Z,99.90
2023-03-31T01:42:20.156Z,99.90
2023-03-31T01:47:48.645Z,99.90
2023-03-31T01:53:18.330Z,99.90
2023-03-31T01:58:52.608Z,99.90
2023-03-31T02:04:01.052Z,99.90
2023-03-31T02:09:12.300Z,99.90
2023-03-31T02:14:23.909Z,99.90
2023-03-31T02:19:36.317Z,99.90
2023-03-31T02:24:42.408Z,99.90
2023-03-31T02:29:45.682Z,99.90
2023-03-31T02:34:48.946Z,99.90
2023-03-31T02:39:54.542Z,99.90
2023-03-31T02:45:04.358Z,99.90
2023-03-31T02:50:07.792Z,99.90
2023-03-31T02:55:17.232Z,99.90
2023-03-31T03:00:20.396Z,99.90
2023-03-31T03:05:36.313Z,99.90
2023-03-31T03:11:31.591Z,99.90
2023-03-31T03:16:40.409Z,99.90
2023-03-31T03:21:43.138Z,99.90
2023-03-31T03:26:46.260Z,99.90
2023-03-31T03:31:49.189Z,99.90
2023-03-31T03:36:52.143Z,99.90
2023-03-31T03:41:54.937Z,99.90
2023-03-31T03:46:57.592Z,99.90
2023-03-31T03:52:00.423Z,99.90
2023-03-31T03:57:03.438Z,99.90
2023-03-31T04:02:07.020Z,99.90
2023-03-31T04:07:09.822Z,99.90
2023-03-31T04:12:12.585Z,99.90
2023-03-31T04:17:16.157Z,99.90
2023-03-31T04:22:20.870Z,99.90
2023-03-31T04:27:27.375Z,99.90
2023-03-31T04:32:33.244Z,99.90
2023-03-31T04:37:35.963Z,99.90
2023-03-31T04:42:38.669Z,99.90
2023-03-31T04:47:41.355Z,99.90
2023-03-31T04:52:44.113Z,99.90
2023-03-31T04:57:46.749Z,99.90
2023-03-31T05:02:49.671Z,99.90
2023-03-31T05:07:52.497Z,99.90
2023-03-31T05:12:55.189Z,99.90
2023-03-31T05:17:59.265Z,99.90
2023-03-31T05:23:02.268Z,99.90
2023-03-31T05:28:05.294Z,99.90
2023-03-31T05:33:08.045Z,99.90
2023-03-31T05:38:10.871Z,99.90
2023-03-31T05:43:13.682Z,99.90
2023-03-31T05:48:18.427Z,99.90
2023-03-31T05:53:21.136Z,99.90
2023-03-31T05:58:23.900Z,99.90
2023-03-31T06:03:26.672Z,99.90
2023-03-31T06:08:30.577Z,99.90
2023-03-31T06:13:33.742Z,99.90
2023-03-31T06:18:37.026Z,99.90
2023-03-31T06:23:39.724Z,99.90
2023-03-31T06:28:44.180Z,99.90
2023-03-31T06:33:47.580Z,99.90
2023-03-31T06:38:51.289Z,99.90
2023-03-31T06:43:54.058Z,99.90
2023-03-31T06:48:57.059Z,99.90
2023-03-31T06:53:59.893Z,99.90
2023-03-31T06:59:02.948Z,99.90
2023-03-31T07:04:05.969Z,99.90
2023-03-31T07:09:08.742Z,99.90
2023-03-31T07:14:11.584Z,99.90
2023-03-31T07:19:15.784Z,99.90
2023-03-31T07:24:18.401Z,99.90
2023-03-31T07:29:21.202Z,99.90
2023-03-31T07:34:24.058Z,99.90
2023-03-31T07:39:27.054Z,99.90
2023-03-31T07:44:29.929Z,99.90
2023-03-31T07:49:33.967Z,99.90
2023-03-31T07:54:37.309Z,99.90
2023-03-31T07:59:40.399Z,99.90
2023-03-31T08:04:44.306Z,99.80
2023-03-31T08:09:47.463Z,98.80
2023-03-31T08:14:50.947Z,97.30
2023-03-31T08:19:53.906Z,94.80
2023-03-31T08:24:56.591Z,93.20
2023-03-31T08:30:03.387Z,91.90
2023-03-31T08:35:07.420Z,85.10
2023-03-31T08:40:17.097Z,79.40
2023-03-31T08:45:40.127Z,74.60
2023-03-31T08:50:49.346Z,74.90
2023-03-31T08:55:57.013Z,73.90
2023-03-31T09:01:08.769Z,72.40
2023-03-31T09:06:47.867Z,75.40
2023-03-31T09:11:57.699Z,70.50
2023-03-31T09:17:01.381Z,64.60
2023-03-31T09:22:09.820Z,76.00
2023-03-31T09:27:13.344Z,74.70
2023-03-31T09:32:25.666Z,72.30
2023-03-31T09:37:33.117Z,68.60
2023-03-31T09:42:38.134Z,56.20
2023-03-31T09:47:51.557Z,54.00
2023-03-31T09:52:59.180Z,57.10
2023-03-31T09:58:02.315Z,50.00
2023-03-31T10:03:08.893Z,51.80
2023-03-31T10:08:17.691Z,48.90
2023-03-31T10:13:29.653Z,42.70
2023-03-31T10:18:36.621Z,44.70
2023-03-31T10:23:39.543Z,43.30
2023-03-31T10:28:42.467Z,39.70
2023-03-31T10:33:50.300Z,43.40
2023-03-31T10:38:54.059Z,40.90
2023-03-31T10:43:58.986Z,37.30
2023-03-31T10:49:14.255Z,41.20
2023-03-31T10:54:16.972Z,38.60
2023-03-31T10:59:58.846Z,36.70
2023-03-31T11:05:22.782Z,35.10
2023-03-31T11:10:55.013Z,36.10
2023-03-31T11:16:25.401Z,35.30
2023-03-31T11:21:42.985Z,36.90
2023-03-31T11:27:16.842Z,42.40
2023-03-31T11:33:08.331Z,44.00
2023-03-31T11:39:00.464Z,44.40
2023-03-31T11:44:06.709Z,46.80
2023-03-31T11:49:21.602Z,43.00
2023-03-31T11:54:46.323Z,41.50
2023-03-31T11:59:59.362Z,39.20
2023-03-31T12:05:04.524Z,40.60
2023-03-31T12:10:21.982Z,40.00
2023-03-31T12:15:46.723Z,40.90
2023-03-31T12:21:00.937Z,42.50
2023-03-31T12:26:38.979Z,42.40
2023-03-31T12:31:44.453Z,44.30
2023-03-31T12:37:19.402Z,40.30
2023-03-31T12:43:00.919Z,38.40
2023-03-31T12:48:30.243Z,40.00
2023-03-31T12:53:42.767Z,38.20
2023-03-31T12:58:46.652Z,41.20
2023-03-31T13:04:21.696Z,38.30
2023-03-31T13:09:40.223Z,36.90
2023-03-31T13:14:46.497Z,41.30
2023-03-31T13:19:49.969Z,39.80
2023-03-31T13:24:52.711Z,42.20
2023-03-31T13:29:55.479Z,41.60
2023-03-31T13:35:04.747Z,42.60
2023-03-31T13:40:26.571Z,42.60
2023-03-31T13:45:42.828Z,42.20
2023-03-31T13:51:10.298Z,42.70
2023-03-31T13:56:22.177Z,44.10
2023-03-31T14:01:57.359Z,45.60
2023-03-31T14:07:08.494Z,46.70
2023-03-31T14:12:37.508Z,43.30
2023-03-31T14:17:41.557Z,40.70
2023-03-31T14:23:02.781Z,41.00
2023-03-31T14:28:30.019Z,38.90
2023-03-31T14:33:46.648Z,40.40
2023-03-31T14:38:49.552Z,41.50
2023-03-31T14:43:53.613Z,43.20
2023-03-31T14:48:56.301Z,45.50
2023-03-31T14:54:00.932Z,45.30
2023-03-31T14:59:05.258Z,46.50
2023-03-31T15:04:13.460Z,47.30
2023-03-31T15:09:23.995Z,48.30
2023-03-31T15:14:36.978Z,50.40
2023-03-31T15:19:39.630Z,50.30
2023-03-31T15:24:42.690Z,51.00
2023-03-31T15:29:49.981Z,52.80
2023-03-31T15:34:53.284Z,54.00
2023-03-31T15:39:59.043Z,55.00
2023-03-31T15:45:39.409Z,55.40
2023-03-31T15:50:42.531Z,57.10
2023-03-31T15:55:45.199Z,57.70
2023-03-31T16:00:52.834Z,58.60
2023-03-31T16:05:57.846Z,65.20
2023-03-31T16:11:09.925Z,67.20
2023-03-31T16:16:16.917Z,78.60
2023-03-31T16:21:29.627Z,76.10
2023-03-31T16:26:33.141Z,70.80
2023-03-31T16:31:41.054Z,71.90
2023-03-31T16:36:43.854Z,75.10
2023-03-31T16:41:46.539Z,71.90
2023-03-31T16:46:49.165Z,78.80
2023-03-31T16:51:52.915Z,93.00
2023-03-31T16:56:55.731Z,88.10
2023-03-31T17:01:58.457Z,92.30
2023-03-31T17:07:01.157Z,92.60
2023-03-31T17:12:04.145Z,98.60
2023-03-31T17:17:07.042Z,99.90
2023-03-31T17:22:10.124Z,93.90
2023-03-31T17:27:13.857Z,96.00
2023-03-31T17:32:17.974Z,96.10
2023-03-31T17:37:20.964Z,95.60
2023-03-31T17:42:23.894Z,97.10
2023-03-31T17:47:27.400Z,97.30
2023-03-31T17:52:30.453Z,95.40
2023-03-31T17:57:33.384Z,96.10
2023-03-31T18:02:38.080Z,96.50
2023-03-31T18:07:41.746Z,96.70
2023-03-31T18:12:44.883Z,98.50
2023-03-31T18:17:48.089Z,99.90
2023-03-31T18:22:51.522Z,99.90
2023-03-31T18:27:54.442Z,99.90
2023-03-31T18:32:57.692Z,99.90
2023-03-31T18:38:00.533Z,99.90
2023-03-31T18:43:03.349Z,99.90
2023-03-31T18:48:06.457Z,99.90
2023-03-31T18:53:09.294Z,99.90
2023-03-31T18:58:12.495Z,99.90
2023-03-31T19:03:15.778Z,99.90
2023-03-31T19:08:18.533Z,99.90
2023-03-31T19:13:21.823Z,99.90
2023-03-31T19:18:26.463Z,99.90
2023-03-31T19:23:31.929Z,99.90
2023-03-31T19:28:34.724Z,99.90
2023-03-31T19:33:37.532Z,99.90
2023-03-31T19:38:40.914Z,99.90
2023-03-31T19:43:43.566Z,99.90
2023-03-31T19:48:46.915Z,99.90
2023-03-31T19:53:49.539Z,99.90
2023-03-31T19:58:52.718Z,99.90
2023-03-31T20:03:56.390Z,99.90
2023-03-31T20:09:01.350Z,99.90
2023-03-31T20:14:04.827Z,99.90
2023-03-31T20:20:16.059Z,99.90
2023-03-31T20:25:18.772Z,99.90
2023-03-31T20:30:21.811Z,99.90
2023-03-31T20:35:24.559Z,99.90
2023-03-31T20:40:28.169Z,99.90
2023-03-31T20:45:31.207Z,99.90
2023-03-31T20:50:37.873Z,99.90
2023-03-31T20:55:41.657Z,99.90
2023-03-31T21:00:45.061Z,99.90
2023-03-31T21:05:48.205Z,99.90
2023-03-31T21:10:50.866Z,99.90
2023-03-31T21:15:55.966Z,99.90
2023-03-31T21:21:01.553Z,99.90
2023-03-31T21:26:06.494Z,99.90
2023-03-31T21:31:11.046Z,99.90
2023-03-31T21:36:18.929Z,99.90
2023-03-31T21:41:24.990Z,99.90
2023-03-31T21:46:29.657Z,99.90
2023-03-31T21:51:32.456Z,99.90
2023-03-31T21:56:35.161Z,99.90
2023-03-31T22:01:38.013Z,99.90
2023-03-31T22:06:40.721Z,99.90
2023-03-31T22:11:43.422Z,99.90
2023-03-31T22:16:46.118Z,99.90
2023-03-31T22:21:50.179Z,99.90
2023-03-31T22:26:52.916Z,99.90
2023-03-31T22:31:55.742Z,99.90
2023-03-31T22:36:58.884Z,99.90
2023-03-31T22:42:01.477Z,99.90
2023-03-31T22:47:04.868Z,99.90
2023-03-31T22:52:07.773Z,99.90
2023-03-31T22:57:10.853Z,99.90
2023-03-31T23:02:13.522Z,99.90
2023-03-31T23:07:17.214Z,99.90
2023-03-31T23:12:19.917Z,99.90
2023-03-31T23:17:22.711Z,99.90
2023-03-31T23:22:26.044Z,99.90
2023-03-31T23:27:28.859Z,99.90
2023-03-31T23:32:31.471Z,99.90
2023-03-31T23:37:34.192Z,99.90
2023-03-31T23:42:36.813Z,99.90
2023-03-31T23:47:41.122Z,99.90
2023-03-31T23:52:43.961Z,99.90
2023-03-31T23:57:46.612Z,99.90
